Time;durP1;ratioP1;P1;durP2;ratioP2;P2;SDS_P1;SDS_P2;PMS_P1;PMS_P2;Temp;Humidity;BMP_temperature;BMP_pressure;BME280_temperature;BME280_humidity;BME280_pressure;Samples;Min_cycle;Max_cycle;Signal;HPM_P1;HPM_P2
2023/12/06 00:00:41;;;;;;;51.95;24.05;;;;;;;1.94;80.95;92119.28;2067315;69;20144;-88
2023/12/06 00:03:07;;;;;;;47.63;22.85;;;;;;;2.23;80.90;92164.72;2073058;69;20137;-89
2023/12/06 00:05:32;;;;;;;50.42;22.98;;;;;;;2.01;81.84;92162.88;2073134;69;20236;-88
2023/12/06 00:07:58;;;;;;;48.25;23.55;;;;;;;2.24;80.63;92146.75;2072900;69;20210;-87
2023/12/06 00:10:24;;;;;;;47.67;23.17;;;;;;;2.23;81.09;92156.41;2073056;69;20132;-88
2023/12/06 00:12:50;;;;;;;47.95;22.90;;;;;;;2.33;80.74;92150.19;2067115;69;20156;-90
2023/12/06 00:15:16;;;;;;;57.00;25.02;;;;;;;2.23;80.35;92145.28;2073108;69;20175;-91
2023/12/06 00:17:41;;;;;;;53.80;23.42;;;;;;;2.32;80.34;92160.56;2072981;69;20156;-83
2023/12/06 00:20:07;;;;;;;52.22;24.50;;;;;;;2.29;80.06;92151.34;2073213;69;20546;-87
2023/12/06 00:22:33;;;;;;;51.63;23.85;;;;;;;2.24;80.51;92154.34;2073322;69;20484;-83
2023/12/06 00:24:59;;;;;;;55.97;23.98;;;;;;;1.88;82.32;92155.63;2073017;69;20148;-87
2023/12/06 00:27:25;;;;;;;49.92;23.88;;;;;;;2.09;82.07;92149.69;2069588;69;20151;-80
2023/12/06 00:29:50;;;;;;;51.33;23.33;;;;;;;2.31;80.99;92153.56;2073303;69;20144;-81
2023/12/06 00:32:16;;;;;;;50.60;23.10;;;;;;;2.30;80.45;92154.88;2072812;69;20168;-90
2023/12/06 00:34:42;;;;;;;60.72;24.60;;;;;;;2.24;80.58;92159.91;2072735;69;20149;-87
2023/12/06 00:37:07;;;;;;;54.28;24.27;;;;;;;1.89;82.43;92164.69;2072842;69;20217;-90
2023/12/06 00:39:33;;;;;;;60.90;25.38;;;;;;;2.04;82.32;92159.72;2072949;69;20148;-90
2023/12/06 00:42:00;;;;;;;59.72;26.33;;;;;;;2.18;81.46;92162.19;2073053;69;20175;-91
2023/12/06 00:44:25;;;;;;;56.20;25.20;;;;;;;2.17;81.66;92171.84;2073507;69;20242;-90
2023/12/06 00:46:51;;;;;;;59.10;26.23;;;;;;;2.21;81.45;92161.06;2066973;69;20144;-91
2023/12/06 00:49:19;;;;;;;58.42;25.38;;;;;;;2.28;81.15;92163.75;2069444;69;20159;-92
2023/12/06 00:51:45;;;;;;;56.13;25.73;;;;;;;2.32;80.57;92166.13;2070192;69;20141;-88
2023/12/06 00:54:11;;;;;;;60.67;25.42;;;;;;;2.07;80.77;92154.34;2072868;69;20156;-86
2023/12/06 00:56:39;;;;;;;59.88;25.52;;;;;;;2.17;81.20;92158.69;2072588;69;20144;-83
2023/12/06 00:59:05;;;;;;;61.38;25.98;;;;;;;2.10;80.68;92148.38;2072976;69;20148;-82
2023/12/06 01:01:31;;;;;;;62.22;24.85;;;;;;;2.23;81.06;92153.63;2072927;69;20148;-90
2023/12/06 01:03:57;;;;;;;55.40;24.48;;;;;;;2.32;80.72;92160.56;2072776;69;20208;-91
2023/12/06 01:06:23;;;;;;;60.95;25.55;;;;;;;2.23;80.98;92170.28;2072810;69;20251;-90
2023/12/06 01:08:49;;;;;;;59.13;26.23;;;;;;;2.24;80.50;92165.47;2072844;69;20140;-84
2023/12/06 01:11:15;;;;;;;58.47;25.27;;;;;;;2.26;80.42;92160.81;2066562;69;20180;-82
2023/12/06 01:13:40;;;;;;;55.28;24.00;;;;;;;2.24;80.73;92168.25;2072732;69;20140;-89
2023/12/06 01:16:06;;;;;;;56.28;24.55;;;;;;;2.23;80.77;92175.84;2072895;69;20631;-90
2023/12/06 01:18:33;;;;;;;57.15;25.27;;;;;;;2.21;80.59;92174.94;2072877;69;20145;-89
2023/12/06 01:20:59;;;;;;;59.80;26.27;;;;;;;2.05;81.28;92179.88;2072511;69;20626;-88
2023/12/06 01:23:25;;;;;;;52.72;24.42;;;;;;;1.76;82.12;92183.09;2072865;69;20133;-90
2023/12/06 01:25:53;;;;;;;55.10;25.65;;;;;;;1.94;82.44;92183.13;2073187;69;20223;-89
2023/12/06 01:28:20;;;;;;;57.33;25.52;;;;;;;1.96;81.88;92177.75;2073015;69;20159;-89
2023/12/06 01:30:49;;;;;;;60.78;26.77;;;;;;;2.01;81.58;92182.31;2072725;69;20164;-86
2023/12/06 01:33:14;;;;;;;58.75;25.45;;;;;;;2.11;80.91;92190.75;2073261;69;20187;-89
2023/12/06 01:35:40;;;;;;;56.22;26.30;;;;;;;2.11;81.64;92187.97;2073044;69;20191;-89
2023/12/06 01:38:06;;;;;;;55.28;25.63;;;;;;;2.18;81.15;92181.63;2072771;69;20167;-89
2023/12/06 01:40:35;;;;;;;53.85;25.25;;;;;;;2.16;80.82;92170.38;2072473;69;20156;-89
2023/12/06 01:43:01;;;;;;;54.20;24.75;;;;;;;2.20;80.45;92179.00;2072992;69;20188;-88
2023/12/06 01:45:27;;;;;;;63.45;26.85;;;;;;;2.19;80.58;92188.66;2069723;69;20214;-89
2023/12/06 01:47:54;;;;;;;58.15;25.52;;;;;;;2.24;80.16;92185.63;2072953;69;20171;-80
2023/12/06 01:50:21;;;;;;;58.38;26.27;;;;;;;2.15;81.06;92182.75;2072780;69;20140;-80
2023/12/06 01:52:47;;;;;;;56.05;24.67;;;;;;;2.15;80.50;92188.31;2072279;69;20179;-80
2023/12/06 01:55:13;;;;;;;55.78;25.15;;;;;;;2.17;80.42;92183.69;2072781;69;20156;-86
2023/12/06 01:57:40;;;;;;;53.78;24.17;;;;;;;2.12;80.57;92192.97;2074029;69;20507;-84
2023/12/06 02:00:07;;;;;;;57.88;25.05;;;;;;;2.06;81.02;92188.94;2074218;69;20195;-86
2023/12/06 02:02:39;;;;;;;60.38;25.13;;;;;;;1.35;84.41;92192.06;2073087;69;20187;-84
2023/12/06 02:05:05;;;;;;;60.88;26.27;;;;;;;1.67;83.92;92192.03;2073073;69;20184;-80
2023/12/06 02:07:33;;;;;;;57.33;24.77;;;;;;;1.90;82.28;92196.69;2072928;69;20229;-79
2023/12/06 02:09:58;;;;;;;52.45;24.48;;;;;;;2.02;81.25;92209.53;2073004;69;20155;-85
2023/12/06 02:12:24;;;;;;;58.00;25.63;;;;;;;1.96;80.88;92209.00;2072951;69;20140;-85
2023/12/06 02:14:50;;;;;;;56.80;24.85;;;;;;;1.97;81.12;92202.19;2073097;69;20156;-82
2023/12/06 02:17:18;;;;;;;54.30;25.08;;;;;;;2.01;81.19;92202.50;2072840;69;20149;-81
2023/12/06 02:19:45;;;;;;;54.97;25.17;;;;;;;1.96;80.89;92202.72;2069842;69;20590;-88
2023/12/06 02:22:11;;;;;;;54.90;23.98;;;;;;;2.01;80.52;92196.94;2073337;69;20151;-90
2023/12/06 02:24:39;;;;;;;52.40;23.83;;;;;;;1.96;80.27;92189.56;2073369;69;20233;-87
2023/12/06 02:27:05;;;;;;;54.95;23.98;;;;;;;1.94;80.76;92194.97;2069632;69;20499;-86
2023/12/06 02:29:31;;;;;;;49.10;23.10;;;;;;;1.91;80.53;92187.78;2069804;69;20589;-87
2023/12/06 02:31:57;;;;;;;53.60;23.67;;;;;;;1.99;80.69;92199.56;2074173;69;20622;-81
2023/12/06 02:34:26;;;;;;;55.40;23.90;;;;;;;1.98;80.42;92200.13;2071167;69;20164;-86
2023/12/06 02:36:57;;;;;;;51.92;23.05;;;;;;;1.94;80.92;92177.59;2069899;69;20525;-89
2023/12/06 02:39:28;;;;;;;52.95;23.92;;;;;;;1.94;80.53;92183.88;2072988;69;20602;-88
2023/12/06 02:41:54;;;;;;;53.58;23.90;;;;;;;1.81;80.59;92161.22;2069697;69;20155;-86
2023/12/06 02:44:20;;;;;;;53.75;23.70;;;;;;;1.97;80.53;92181.97;2069887;69;20141;-86
2023/12/06 02:46:46;;;;;;;50.72;23.52;;;;;;;1.87;80.50;92179.09;2066871;69;20139;-87
2023/12/06 02:49:12;;;;;;;52.47;23.90;;;;;;;1.60;81.98;92175.44;2072994;69;20191;-90
2023/12/06 02:51:37;;;;;;;53.80;24.25;;;;;;;1.62;82.02;92183.94;2073029;69;20156;-89
2023/12/06 02:54:03;;;;;;;58.45;26.13;;;;;;;1.71;81.94;92188.88;2073151;69;20159;-89
2023/12/06 02:56:29;;;;;;;57.10;24.92;;;;;;;1.73;81.50;92183.47;2069756;69;20143;-85
2023/12/06 02:58:55;;;;;;;58.70;25.13;;;;;;;1.75;81.78;92176.06;2073109;69;20133;-90
2023/12/06 03:01:20;;;;;;;58.65;25.95;;;;;;;1.87;81.31;92190.22;2069666;69;20510;-87
2023/12/06 03:03:46;;;;;;;59.25;26.17;;;;;;;1.91;81.04;92189.81;2072786;69;20156;-90
2023/12/06 03:06:11;;;;;;;54.90;24.15;;;;;;;1.85;81.32;92190.06;2073314;69;20155;-90
2023/12/06 03:08:37;;;;;;;55.58;23.75;;;;;;;1.91;80.94;92184.25;2072933;69;20146;-89
2023/12/06 03:11:03;;;;;;;54.97;25.25;;;;;;;1.86;81.31;92179.69;2077769;69;20141;-89
2023/12/06 03:13:28;;;;;;;51.35;23.05;;;;;;;1.87;80.85;92178.38;2079090;69;20156;-87
2023/12/06 03:15:54;;;;;;;58.92;25.33;;;;;;;1.48;82.57;92184.19;2077811;69;20140;-86
2023/12/06 03:18:20;;;;;;;55.67;24.30;;;;;;;1.69;82.27;92178.31;2078850;69;20533;-81
2023/12/06 03:20:46;;;;;;;57.13;25.10;;;;;;;1.80;81.38;92176.41;2076698;69;20210;-80
2023/12/06 03:23:12;;;;;;;56.85;24.20;;;;;;;1.77;81.36;92167.16;2072431;69;20155;-80
2023/12/06 03:25:37;;;;;;;52.70;24.05;;;;;;;1.81;80.64;92166.78;2078178;69;20145;-82
2023/12/06 03:28:03;;;;;;;59.90;25.95;;;;;;;1.45;83.25;92176.25;2075466;69;20116;-79
2023/12/06 03:30:29;;;;;;;57.30;24.75;;;;;;;1.59;82.96;92171.91;2078678;69;20139;-81
2023/12/06 03:32:55;;;;;;;60.00;25.02;;;;;;;1.66;81.84;92168.38;2073101;69;20159;-84
2023/12/06 03:35:21;;;;;;;56.78;25.27;;;;;;;1.70;81.07;92177.03;2074923;69;20186;-85
2023/12/06 03:37:46;;;;;;;54.05;24.13;;;;;;;1.68;80.94;92182.41;2075131;69;20156;-81
2023/12/06 03:40:12;;;;;;;57.17;25.05;;;;;;;1.68;81.06;92179.63;2078446;69;20171;-82
2023/12/06 03:42:38;;;;;;;58.95;25.27;;;;;;;1.68;81.25;92185.16;2072071;69;20207;-84
2023/12/06 03:45:04;;;;;;;54.83;23.92;;;;;;;1.67;81.30;92177.41;2079274;69;20187;-88
2023/12/06 03:47:30;;;;;;;58.00;25.23;;;;;;;1.14;82.85;92176.44;2076847;69;20205;-88
2023/12/06 03:49:56;;;;;;;56.38;25.17;;;;;;;1.53;81.95;92182.50;2073893;69;20144;-83
2023/12/06 03:52:22;;;;;;;54.90;24.48;;;;;;;1.49;81.34;92171.81;2071303;69;20141;-79
2023/12/06 03:54:48;;;;;;;53.88;23.35;;;;;;;1.60;81.34;92170.59;2077894;69;20212;-81
2023/12/06 03:57:13;;;;;;;57.72;24.98;;;;;;;1.67;80.93;92174.66;2077685;69;20148;-79
2023/12/06 03:59:39;;;;;;;54.03;24.98;;;;;;;1.62;81.03;92170.78;2074454;69;20144;-79
2023/12/06 04:02:05;;;;;;;60.67;25.88;;;;;;;1.60;81.71;92181.72;2077931;69;20172;-81
2023/12/06 04:04:31;;;;;;;59.50;25.70;;;;;;;1.69;81.25;92174.81;2076992;69;20153;-83
2023/12/06 04:06:56;;;;;;;70.07;30.17;;;;;;;1.53;81.86;92179.72;2076965;69;20175;-81
2023/12/06 04:09:22;;;;;;;64.55;30.83;;;;;;;1.62;81.50;92175.59;2077465;69;20144;-85
2023/12/06 04:11:47;;;;;;;60.72;27.10;;;;;;;1.65;81.29;92174.47;2077881;69;20140;-86
2023/12/06 04:14:13;;;;;;;55.38;24.90;;;;;;;1.55;81.45;92162.50;2076453;69;20211;-86
2023/12/06 04:16:39;;;;;;;44.10;21.38;;;;;;;1.70;81.02;92165.19;2073094;69;20140;-87
2023/12/06 04:19:04;;;;;;;53.38;24.38;;;;;;;1.63;81.19;92163.19;2075200;69;20152;-85
2023/12/06 04:21:30;;;;;;;55.17;24.83;;;;;;;1.62;81.29;92168.03;2075045;69;20141;-83
2023/12/06 04:23:55;;;;;;;54.65;23.73;;;;;;;1.63;80.63;92163.94;2074974;69;20144;-84
2023/12/06 04:26:21;;;;;;;55.97;24.20;;;;;;;1.57;81.35;92163.44;2076814;69;20152;-85
2023/12/06 04:28:47;;;;;;;56.90;23.98;;;;;;;1.48;81.15;92167.56;2076432;69;20163;-85
2023/12/06 04:31:13;;;;;;;54.53;24.08;;;;;;;1.58;80.98;92178.78;2075781;69;20171;-84
2023/12/06 04:33:40;;;;;;;53.67;24.05;;;;;;;1.55;81.04;92177.13;2075373;69;20308;-81
2023/12/06 04:36:06;;;;;;;55.60;24.63;;;;;;;1.54;80.87;92175.66;2074413;69;20153;-79
2023/12/06 04:38:32;;;;;;;51.63;24.02;;;;;;;1.56;81.08;92183.41;2072913;69;20140;-82
2023/12/06 04:40:58;;;;;;;54.90;24.40;;;;;;;1.54;81.06;92178.44;2073238;69;20144;-83
2023/12/06 04:43:23;;;;;;;54.50;24.05;;;;;;;1.62;80.39;92186.72;2073636;69;20555;-83
2023/12/06 04:45:49;;;;;;;52.90;23.98;;;;;;;1.63;80.68;92182.63;2073046;69;20136;-84
2023/12/06 04:48:14;;;;;;;45.17;22.02;;;;;;;1.66;80.68;92196.09;2074979;69;20140;-88
2023/12/06 04:50:40;;;;;;;57.05;25.85;;;;;;;1.54;80.38;92186.75;2074944;69;20144;-84
2023/12/06 04:53:05;;;;;;;55.47;25.23;;;;;;;1.42;81.68;92199.56;2076782;69;20144;-88
2023/12/06 04:55:31;;;;;;;55.25;24.27;;;;;;;1.42;81.04;92191.25;2076053;69;20152;-87
2023/12/06 04:58:06;;;;;;;55.08;25.33;;;;;;;1.45;81.28;92196.41;2074211;69;20155;-89
2023/12/06 05:00:31;;;;;;;52.80;25.10;;;;;;;1.52;81.26;92203.97;2070671;69;20152;-85
2023/12/06 05:02:57;;;;;;;57.03;24.10;;;;;;;1.51;80.57;92207.28;2071845;69;20205;-86
2023/12/06 05:05:22;;;;;;;62.53;27.83;;;;;;;1.53;80.54;92194.34;2073759;69;20140;-79
2023/12/06 05:07:48;;;;;;;69.40;31.05;;;;;;;1.50;80.73;92195.47;2072893;69;20231;-82
2023/12/06 05:10:14;;;;;;;70.97;31.60;;;;;;;1.52;81.03;92203.22;2072549;69;20156;-84
2023/12/06 05:12:44;;;;;;;72.07;31.52;;;;;;;1.55;80.62;92198.56;2068660;69;20221;-87
2023/12/06 05:15:10;;;;;;;76.38;33.17;;;;;;;1.58;80.93;92203.75;2072135;69;20160;-86
2023/12/06 05:17:38;;;;;;;74.13;30.92;;;;;;;1.58;80.32;92203.00;2071505;69;20184;-82
2023/12/06 05:20:06;;;;;;;67.07;32.00;;;;;;;1.49;80.83;92196.75;2071962;69;20239;-81
2023/12/06 05:22:32;;;;;;;51.97;24.92;;;;;;;1.21;82.23;92194.34;2068657;69;20140;-79
2023/12/06 05:24:59;;;;;;;61.67;28.35;;;;;;;1.41;81.91;92198.84;2072379;69;20144;-85
2023/12/06 05:27:24;;;;;;;63.90;28.77;;;;;;;1.50;81.48;92195.47;2072357;69;20144;-85
2023/12/06 05:29:50;;;;;;;65.05;29.48;;;;;;;1.48;81.33;92200.84;2072156;69;20155;-83
2023/12/06 05:32:16;;;;;;;57.80;27.08;;;;;;;1.40;81.62;92197.38;2072358;69;20599;-79
2023/12/06 05:34:41;;;;;;;55.00;26.92;;;;;;;1.55;81.16;92202.09;2072896;69;20522;-82
2023/12/06 05:37:07;;;;;;;57.72;27.52;;;;;;;1.61;80.75;92196.34;2072186;69;20542;-81
2023/12/06 05:39:35;;;;;;;46.72;23.85;;;;;;;1.35;82.08;92197.59;2071984;69;20146;-83
2023/12/06 05:42:05;;;;;;;52.38;24.25;;;;;;;1.41;82.41;92198.09;2072404;69;20658;-81
2023/12/06 05:44:33;;;;;;;49.35;23.80;;;;;;;1.56;80.89;92200.81;2072505;69;20136;-85
2023/12/06 05:46:58;;;;;;;47.60;22.67;;;;;;;1.61;80.82;92193.56;2072951;69;20198;-82
2023/12/06 05:49:24;;;;;;;48.42;23.10;;;;;;;1.62;80.64;92192.25;2072464;69;20191;-84
2023/12/06 05:51:49;;;;;;;40.05;20.77;;;;;;;1.59;80.73;92196.88;2072071;69;20144;-83
2023/12/06 05:54:15;;;;;;;42.97;20.35;;;;;;;1.61;80.37;92196.34;2071793;69;20159;-83
2023/12/06 05:56:41;;;;;;;45.38;21.23;;;;;;;1.64;80.40;92200.75;2071983;69;20175;-85
2023/12/06 05:59:06;;;;;;;41.45;20.67;;;;;;;1.61;80.36;92190.78;2072053;69;20250;-84
2023/12/06 06:01:32;;;;;;;41.47;20.80;;;;;;;1.65;80.49;92183.53;2072118;69;20156;-83
2023/12/06 06:03:58;;;;;;;27.63;15.25;;;;;;;1.64;80.58;92179.28;2071907;69;20155;-84
2023/12/06 06:06:24;;;;;;;22.75;11.82;;;;;;;1.65;80.98;92183.53;2071893;69;20157;-83
2023/12/06 06:08:50;;;;;;;11.57;7.03;;;;;;;1.63;81.33;92186.13;2071850;69;20192;-83
2023/12/06 06:11:16;;;;;;;10.32;6.28;;;;;;;1.62;81.93;92186.72;2071958;69;20160;-80
2023/12/06 06:13:41;;;;;;;36.47;16.35;;;;;;;1.38;82.47;92194.44;2071890;69;20144;-80
2023/12/06 06:16:07;;;;;;;61.15;26.60;;;;;;;1.52;82.11;92192.13;2068621;69;20210;-84
2023/12/06 06:18:33;;;;;;;61.08;24.90;;;;;;;1.63;81.20;92183.34;2072095;69;20226;-84
2023/12/06 06:21:05;;;;;;;52.72;23.52;;;;;;;1.55;81.13;92196.53;2071942;69;20148;-85
2023/12/06 06:23:31;;;;;;;46.42;22.00;;;;;;;1.61;80.28;92199.13;2071824;69;20167;-84
2023/12/06 06:25:57;;;;;;;49.75;20.83;;;;;;;1.59;80.90;92196.88;2071989;69;20180;-82
2023/12/06 06:28:23;;;;;;;50.50;23.23;;;;;;;1.34;81.60;92210.72;2071885;69;20157;-85
2023/12/06 06:30:48;;;;;;;55.05;24.98;;;;;;;1.44;81.72;92210.84;2071849;69;20172;-84
2023/12/06 06:33:14;;;;;;;52.22;23.77;;;;;;;1.52;81.03;92214.34;2071947;69;20163;-85
2023/12/06 06:35:39;;;;;;;54.08;22.40;;;;;;;1.36;81.12;92212.94;2072075;69;20152;-84
2023/12/06 06:38:05;;;;;;;53.78;20.88;;;;;;;1.40;81.35;92210.50;2068296;69;20144;-86
2023/12/06 06:40:30;;;;;;;43.95;20.77;;;;;;;1.44;81.32;92222.69;2071881;69;20598;-80
2023/12/06 06:42:56;;;;;;;45.80;21.35;;;;;;;1.45;80.84;92217.88;2068384;69;20168;-80
2023/12/06 06:45:21;;;;;;;47.83;22.65;;;;;;;1.23;81.75;92216.69;2071740;69;20148;-82
2023/12/06 06:47:48;;;;;;;45.50;20.58;;;;;;;1.15;82.61;92227.84;2071844;69;20148;-85
2023/12/06 06:50:15;;;;;;;44.75;20.13;;;;;;;1.20;82.76;92221.34;2071845;69;20145;-86
2023/12/06 06:52:41;;;;;;;42.38;20.58;;;;;;;1.39;82.07;92225.69;2071653;69;20479;-86
2023/12/06 06:55:07;;;;;;;47.60;21.20;;;;;;;1.46;81.20;92222.13;2071692;69;20242;-85
2023/12/06 06:57:33;;;;;;;46.20;21.42;;;;;;;1.53;80.85;92221.34;2071799;69;20182;-85
2023/12/06 06:59:58;;;;;;;42.05;21.40;;;;;;;1.59;80.93;92221.84;2068322;69;20187;-84
2023/12/06 07:02:24;;;;;;;46.13;23.95;;;;;;;1.60;81.02;92230.91;2071804;69;20252;-83
2023/12/06 07:04:51;;;;;;;52.05;26.15;;;;;;;1.60;80.98;92231.66;2071655;69;20257;-85
2023/12/06 07:07:17;;;;;;;54.75;27.33;;;;;;;1.64;81.38;92231.25;2071646;69;20672;-85
2023/12/06 07:09:43;;;;;;;53.28;26.17;;;;;;;1.57;81.09;92224.47;2071653;69;20297;-85
2023/12/06 07:12:09;;;;;;;50.80;26.17;;;;;;;1.46;82.10;92228.41;2071665;69;20160;-86
2023/12/06 07:14:35;;;;;;;50.17;24.15;;;;;;;1.68;80.92;92229.56;2071706;69;20598;-85
2023/12/06 07:17:01;;;;;;;48.25;24.73;;;;;;;1.68;80.66;92234.38;2071571;69;20163;-85
2023/12/06 07:19:27;;;;;;;49.13;24.60;;;;;;;1.54;81.88;92228.38;2072424;69;20168;-84
2023/12/06 07:21:52;;;;;;;53.22;26.00;;;;;;;1.74;81.07;92237.66;2071925;69;20254;-85
2023/12/06 07:24:20;;;;;;;49.03;25.00;;;;;;;1.78;81.09;92235.97;2071593;69;20156;-83
2023/12/06 07:26:46;;;;;;;49.05;22.25;;;;;;;1.86;80.50;92237.97;2071720;69;20552;-86
2023/12/06 07:29:12;;;;;;;45.90;22.75;;;;;;;1.88;79.96;92241.66;2071589;69;20147;-85
2023/12/06 07:31:39;;;;;;;55.65;23.98;;;;;;;1.30;82.30;92245.69;2071558;69;20231;-85
2023/12/06 07:34:05;;;;;;;56.42;24.98;;;;;;;1.56;81.72;92241.66;2071538;69;20160;-85
2023/12/06 07:36:31;;;;;;;62.00;25.70;;;;;;;1.72;81.10;92252.13;2071569;69;20222;-85
2023/12/06 07:38:57;;;;;;;58.05;25.30;;;;;;;1.78;80.53;92260.94;2071490;69;20204;-86
2023/12/06 07:41:22;;;;;;;68.05;28.75;;;;;;;1.78;80.62;92255.41;2072098;69;20170;-89
2023/12/06 07:43:48;;;;;;;62.95;28.20;;;;;;;1.90;80.80;92260.53;2071964;69;20176;-88
2023/12/06 07:46:13;;;;;;;83.65;35.13;;;;;;;2.00;80.22;92255.81;2072790;69;20209;-88
2023/12/06 07:48:39;;;;;;;64.15;33.40;;;;;;;2.02;80.68;92259.50;2073134;69;20529;-86
2023/12/06 07:51:05;;;;;;;73.85;33.85;;;;;;;2.13;80.45;92265.91;2072275;69;20152;-80
2023/12/06 07:53:30;;;;;;;68.70;32.53;;;;;;;2.19;80.30;92269.19;2071949;69;20294;-80
2023/12/06 07:55:58;;;;;;;64.10;31.05;;;;;;;2.25;80.09;92262.13;2072112;69;20160;-77
2023/12/06 07:58:30;;;;;;;66.32;33.05;;;;;;;2.26;80.06;92268.41;2072012;69;20176;-85
2023/12/06 08:00:58;;;;;;;66.90;32.33;;;;;;;2.18;79.88;92268.47;2072372;69;20152;-81
2023/12/06 08:03:30;;;;;;;64.85;32.10;;;;;;;1.69;81.95;92272.66;2072066;69;20232;-80
2023/12/06 08:05:55;;;;;;;57.50;29.20;;;;;;;2.09;81.70;92271.13;2072330;69;20156;-81
2023/12/06 08:08:21;;;;;;;63.85;31.30;;;;;;;2.34;80.54;92276.66;2071981;69;20136;-79
2023/12/06 08:10:47;;;;;;;75.88;33.40;;;;;;;2.30;80.29;92277.09;2072176;69;20624;-82
2023/12/06 08:13:12;;;;;;;92.75;35.80;;;;;;;1.99;81.23;92285.63;2072257;69;20155;-86
2023/12/06 08:15:39;;;;;;;67.18;29.55;;;;;;;2.26;80.89;92276.75;2072210;69;20168;-89
2023/12/06 08:18:06;;;;;;;61.58;25.85;;;;;;;2.49;80.05;92273.78;2071921;69;20152;-84
2023/12/06 08:20:32;;;;;;;52.92;24.80;;;;;;;2.62;79.13;92279.03;2072228;69;20149;-90
2023/12/06 08:22:58;;;;;;;44.85;22.27;;;;;;;2.19;79.95;92280.31;2071934;69;20129;-86
2023/12/06 08:25:23;;;;;;;56.97;25.02;;;;;;;2.52;79.78;92290.06;2072029;69;20140;-80
2023/12/06 08:27:49;;;;;;;52.88;24.88;;;;;;;2.71;79.37;92289.50;2072142;69;20187;-79
2023/12/06 08:30:14;;;;;;;55.15;24.73;;;;;;;2.83;78.82;92294.59;2071974;69;20227;-80
2023/12/06 08:32:40;;;;;;;59.45;28.50;;;;;;;3.04;78.39;92297.72;2068690;69;20164;-81
2023/12/06 08:35:06;;;;;;;42.92;23.42;;;;;;;2.73;78.31;92303.56;2072304;69;20506;-80
2023/12/06 08:37:32;;;;;;;61.10;29.60;;;;;;;2.65;79.73;92297.34;2071890;69;20179;-79
2023/12/06 08:39:57;;;;;;;50.95;24.13;;;;;;;3.01;78.95;92294.03;2072018;69;20247;-78
2023/12/06 08:42:23;;;;;;;52.45;26.60;;;;;;;3.23;78.18;92300.66;2072047;69;20659;-82
2023/12/06 08:44:48;;;;;;;54.20;26.55;;;;;;;3.32;77.96;92299.28;2072162;69;20172;-80
2023/12/06 08:47:14;;;;;;;53.53;27.92;;;;;;;3.37;77.70;92286.41;2072026;69;20586;-82
2023/12/06 08:49:40;;;;;;;58.00;28.60;;;;;;;3.40;77.47;92297.13;2065818;69;20235;-79
2023/12/06 08:52:06;;;;;;;50.53;26.83;;;;;;;3.43;76.75;92293.19;2071788;69;20140;-81
2023/12/06 08:54:35;;;;;;;65.05;34.67;;;;;;;3.47;76.74;92299.09;2071960;69;20144;-85
2023/12/06 08:57:01;;;;;;;51.83;27.70;;;;;;;3.44;76.56;92297.47;2072069;69;20146;-82
2023/12/06 08:59:27;;;;;;;43.90;25.92;;;;;;;3.42;76.96;92304.91;2072060;69;20624;-79
2023/12/06 09:01:53;;;;;;;48.10;26.88;;;;;;;3.38;77.09;92304.59;2071827;69;20151;-79
2023/12/06 09:04:19;;;;;;;47.35;25.55;;;;;;;3.62;77.20;92317.66;2071931;69;20240;-82
2023/12/06 09:06:45;;;;;;;47.75;24.45;;;;;;;3.24;76.80;92318.81;2072198;69;20202;-81
2023/12/06 09:09:11;;;;;;;62.13;32.95;;;;;;;3.12;77.36;92328.97;2071957;69;20619;-81
2023/12/06 09:11:37;;;;;;;48.30;26.40;;;;;;;3.59;77.53;92321.59;2072050;69;20642;-88
2023/12/06 09:14:02;;;;;;;49.33;28.08;;;;;;;3.92;76.21;92318.59;2072351;69;20144;-81
2023/12/06 09:16:28;;;;;;;47.92;26.80;;;;;;;4.19;75.33;92310.22;2068746;69;20584;-87
2023/12/06 09:18:55;;;;;;;51.72;29.65;;;;;;;4.25;75.10;92313.47;2069059;69;20254;-86
2023/12/06 09:21:20;;;;;;;51.58;30.27;;;;;;;4.40;74.65;92306.94;2068353;69;20145;-91
2023/12/06 09:23:47;;;;;;;59.28;33.53;;;;;;;4.28;73.85;92317.91;2069976;69;20149;-82
2023/12/06 09:26:13;;;;;;;50.92;29.83;;;;;;;4.53;74.31;92317.69;2069833;69;20140;-89
2023/12/06 09:28:38;;;;;;;56.40;31.98;;;;;;;4.32;74.25;92318.94;2070782;69;20137;-87
2023/12/06 09:31:05;;;;;;;56.97;30.45;;;;;;;4.12;74.16;92311.78;2069959;69;20230;-94
2023/12/06 09:33:31;;;;;;;49.92;28.80;;;;;;;4.39;74.17;92325.72;2072252;69;20148;-92
2023/12/06 09:35:57;;;;;;;47.60;25.92;;;;;;;4.45;73.67;92319.91;2070416;69;20183;-93
2023/12/06 09:38:22;;;;;;;46.95;26.00;;;;;;;4.52;73.66;92319.75;2069890;69;20195;-93
2023/12/06 09:40:48;;;;;;;47.35;26.67;;;;;;;4.53;73.46;92315.66;2069894;69;20149;-79
2023/12/06 09:43:14;;;;;;;50.90;27.70;;;;;;;4.53;72.61;92309.34;2066481;69;20137;-93
2023/12/06 09:45:40;;;;;;;48.00;27.20;;;;;;;4.69;72.85;92318.94;2069192;69;20149;-92
2023/12/06 09:48:07;;;;;;;47.80;25.52;;;;;;;4.55;72.88;92317.88;2069531;69;20140;-89
2023/12/06 09:50:32;;;;;;;48.40;25.63;;;;;;;4.58;72.82;92309.09;2065487;69;20136;-90
2023/12/06 09:52:58;;;;;;;45.03;26.90;;;;;;;4.46;72.97;92315.78;2068334;69;20515;-84
2023/12/06 09:55:24;;;;;;;48.20;27.80;;;;;;;4.64;73.17;92317.19;2068791;69;20237;-88
2023/12/06 09:57:51;;;;;;;49.72;28.42;;;;;;;3.85;74.08;92316.63;2068747;69;20168;-88
2023/12/06 10:00:17;;;;;;;63.33;36.40;;;;;;;3.88;74.63;92329.41;2068140;69;20185;-86
2023/12/06 10:02:51;;;;;;;49.17;27.27;;;;;;;4.28;74.64;92329.78;2068467;69;20227;-84
2023/12/06 10:05:17;;;;;;;43.35;25.08;;;;;;;4.32;73.90;92323.78;2068501;69;20634;-83
2023/12/06 10:07:43;;;;;;;51.45;27.63;;;;;;;4.59;73.45;92327.28;2068295;69;20176;-81
2023/12/06 10:10:16;;;;;;;47.25;26.95;;;;;;;4.61;73.21;92329.47;2067926;69;20243;-79
2023/12/06 10:12:59;;;;;;;46.88;27.20;;;;;;;4.71;72.88;92321.88;2068493;69;20526;-80
2023/12/06 10:15:36;;;;;;;46.40;27.17;;;;;;;4.69;72.80;92321.00;2068409;69;20174;-78
2023/12/06 10:18:02;;;;;;;43.90;25.55;;;;;;;4.68;72.28;92316.75;2071479;69;20208;-79
2023/12/06 10:20:29;;;;;;;44.10;25.83;;;;;;;4.74;72.29;92314.41;2071783;69;20152;-77
2023/12/06 10:22:55;;;;;;;39.33;24.98;;;;;;;4.70;72.41;92322.47;2071549;69;20223;-82
2023/12/06 10:25:22;;;;;;;45.45;26.30;;;;;;;4.54;72.40;92316.41;2071871;69;20147;-87
2023/12/06 10:27:48;;;;;;;42.15;25.40;;;;;;;4.63;72.41;92309.38;2071787;69;20713;-84
2023/12/06 10:30:22;;;;;;;39.30;23.35;;;;;;;4.62;72.34;92321.84;2071954;69;20235;-89
2023/12/06 10:32:50;;;;;;;45.97;24.77;;;;;;;4.74;72.41;92315.16;2071769;69;20606;-84
2023/12/06 10:35:17;;;;;;;46.65;26.88;;;;;;;4.75;72.18;92319.41;2071829;69;20521;-85
2023/12/06 10:37:43;;;;;;;46.05;24.80;;;;;;;4.78;71.79;92317.50;2071864;69;20237;-88
2023/12/06 10:40:12;;;;;;;50.38;28.33;;;;;;;4.86;71.95;92318.13;2071931;69;20164;-88
2023/12/06 10:42:44;;;;;;;45.88;27.48;;;;;;;4.85;71.98;92316.63;2071839;69;20163;-86
2023/12/06 10:45:11;;;;;;;44.75;27.70;;;;;;;4.78;72.09;92311.94;2068404;69;20590;-87
2023/12/06 10:47:39;;;;;;;56.08;28.45;;;;;;;4.94;71.56;92320.78;2071837;69;20144;-86
2023/12/06 10:50:07;;;;;;;51.03;29.40;;;;;;;5.02;71.76;92313.75;2071869;69;20179;-89
2023/12/06 10:52:35;;;;;;;49.63;28.63;;;;;;;5.03;71.47;92314.47;2071766;69;20144;-90
2023/12/06 10:55:03;;;;;;;47.17;28.73;;;;;;;5.02;71.41;92310.22;2068485;69;20211;-82
2023/12/06 10:57:30;;;;;;;47.42;28.80;;;;;;;4.99;71.74;92306.53;2071820;69;20156;-82
2023/12/06 10:59:57;;;;;;;51.97;30.30;;;;;;;4.83;71.57;92297.72;2068412;69;20163;-89
2023/12/06 11:02:23;;;;;;;55.88;33.25;;;;;;;5.10;71.80;92305.97;2072352;69;20613;-89
2023/12/06 11:04:53;;;;;;;55.65;32.55;;;;;;;5.25;71.62;92304.97;2072105;69;20140;-77
2023/12/06 11:07:48;;;;;;;49.65;30.50;;;;;;;5.23;71.43;92304.84;2071702;69;20184;-86
2023/12/06 11:10:20;;;;;;;54.75;33.22;;;;;;;5.45;71.08;92311.31;2067307;69;20156;-89
2023/12/06 11:13:19;;;;;;;50.47;28.10;;;;;;;5.16;71.31;92299.38;2071791;69;20148;-88
2023/12/06 11:16:07;;;;;;;46.60;26.90;;;;;;;5.39;71.32;92301.75;2071830;69;20133;-85
2023/12/06 11:18:44;;;;;;;48.72;27.60;;;;;;;5.67;70.73;92301.00;2068378;69;20152;-84
2023/12/06 11:21:12;;;;;;;50.38;30.15;;;;;;;5.82;70.13;92294.41;2071823;69;20136;-88